KAFN/AFN METAR and TAF weather

Enter ICAO airport designator
Station Type Date Time Source
KAFN METAR 2022/06/30 13:52 UTC NOAA

KAFN 301352Z AUTO 34007G16KT 320V030 10SM CLR 21/08 A3021 RMK AO2 SLP233 T02110078


Station Type Date Time Source
KAFN Decoded METAR 2022/06/30 13:52 UTC NOAA

JAFFREY MUNI-SILVER RANCH, NH, United States (KAFN) 42-48N 72-00W 313M
Jun 30, 2022 - 09:52 AM EDT / 2022.06.30 1352 UTC
Wind: from the NNW (340 degrees) at 8 MPH (7 KT) gusting to 18 MPH (16 KT) (direction variable):0
Visibility: 10 mile(s):0
Sky conditions: clear
Temperature: 70.0 F (21.1 C)
Dew Point: 46.0 F (7.8 C)
Relative Humidity: 42%
Pressure (altimeter): 30.21 in. Hg (1023 hPa)
ob: KAFN 301352Z AUTO 34007G16KT 320V030 10SM CLR 21/08 A3021 RMK AO2 SLP233 T02110078
cycle: 14

Station Type Date Time Source
KAFN TAF UTC NOAA

Error!

Example: see airport list